Time;durP1;ratioP1;P1;durP2;ratioP2;P2;SDS_P1;SDS_P2;PMS_P1;PMS_P2;Temp;Humidity;BMP_temperature;BMP_pressure;BME280_temperature;BME280_humidity;BME280_pressure;Samples;Min_cycle;Max_cycle;Signal;HPM_P1;HPM_P2
2022/11/20 00:01:33;;;;;;;;;;;14.20;39.20;;;;;;5156680;27;20322;-70
2022/11/20 00:03:58;;;;;;;;;;;14.20;39.20;;;;;;5156690;27;19918;-70
2022/11/20 00:06:25;;;;;;;;;;;14.20;39.10;;;;;;5156616;27;19919;-70
2022/11/20 00:08:51;;;;;;;;;;;14.20;39.50;;;;;;5156331;27;19934;-70
2022/11/20 00:11:18;;;;;;;;;;;14.20;39.10;;;;;;5156543;27;20354;-70
2022/11/20 00:13:43;;;;;;;;;;;14.30;39.20;;;;;;5156287;27;20381;-69
2022/11/20 00:16:10;;;;;;;;;;;14.20;39.10;;;;;;5156009;27;19919;-70
2022/11/20 00:18:35;;;;;;;;;;;14.20;39.10;;;;;;5155861;27;19923;-70
2022/11/20 00:21:21;;;;;;;;;;;14.20;39.00;;;;;;5156394;27;19982;-69
2022/11/20 00:23:47;;;;;;;;;;;14.20;39.10;;;;;;5156003;27;19992;-68
2022/11/20 00:26:14;;;;;;;;;;;14.20;39.10;;;;;;5174822;27;19923;-68
2022/11/20 00:28:40;;;;;;;;;;;14.90;39.40;;;;;;5156374;27;20013;-68
2022/11/20 00:31:08;;;;;;;;;;;14.20;39.10;;;;;;5156116;27;20337;-71
2022/11/20 00:33:33;;;;;;;;;;;14.10;39.00;;;;;;5174902;27;19972;-68
2022/11/20 00:36:00;;;;;;;;;;;14.10;39.10;;;;;;5156348;27;19919;-68
2022/11/20 00:38:26;;;;;;;;;;;14.20;39.10;;;;;;5175033;27;20006;-70
2022/11/20 00:41:00;;;;;;;;;;;14.10;39.00;;;;;;5155845;27;20010;-69
2022/11/20 00:43:26;;;;;;;;;;;14.10;39.00;;;;;;5155915;27;19926;-69
2022/11/20 00:45:56;;;;;;;;;;;14.10;39.00;;;;;;5155826;27;19919;-71
2022/11/20 00:48:21;;;;;;;;;;;14.10;39.00;;;;;;5174590;27;19923;-70
2022/11/20 00:50:50;;;;;;;;;;;14.10;39.10;;;;;;5156305;27;19918;-69
2022/11/20 00:53:15;;;;;;;;;;;14.10;39.10;;;;;;5174462;27;20005;-68
2022/11/20 00:55:40;;;;;;;;;;;14.10;39.00;;;;;;5155937;27;19966;-71
2022/11/20 00:58:06;;;;;;;;;;;14.10;39.00;;;;;;5155754;27;20014;-69
2022/11/20 01:00:31;;;;;;;;;;;14.10;39.00;;;;;;5174428;27;20377;-71
2022/11/20 01:02:57;;;;;;;;;;;14.10;39.00;;;;;;5155822;27;20059;-71
2022/11/20 01:05:22;;;;;;;;;;;14.10;39.10;;;;;;5159234;27;19925;-68
2022/11/20 01:07:48;;;;;;;;;;;14.10;39.10;;;;;;5159670;27;20010;-71
2022/11/20 01:10:13;;;;;;;;;;;14.10;39.00;;;;;;5178340;27;19962;-71
2022/11/20 01:12:39;;;;;;;;;;;14.10;39.00;;;;;;5159817;27;19966;-71
2022/11/20 01:15:05;;;;;;;;;;;14.10;39.10;;;;;;5159518;27;20342;-69
2022/11/20 01:17:31;;;;;;;;;;;14.10;39.00;;;;;;5159394;27;19923;-69
2022/11/20 01:19:56;;;;;;;;;;;14.00;39.00;;;;;;5177890;27;19948;-70
2022/11/20 01:22:22;;;;;;;;;;;14.10;39.10;;;;;;5159337;27;20005;-72
2022/11/20 01:24:47;;;;;;;;;;;14.00;39.00;;;;;;5159672;27;19964;-71
2022/11/20 01:27:13;;;;;;;;;;;14.00;39.10;;;;;;5159568;27;19962;-71
2022/11/20 01:29:38;;;;;;;;;;;14.00;39.00;;;;;;5159164;27;20289;-68
2022/11/20 01:32:04;;;;;;;;;;;14.10;39.10;;;;;;5177926;27;20021;-71
2022/11/20 01:34:29;;;;;;;;;;;14.10;39.00;;;;;;5177782;27;19918;-72
2022/11/20 01:36:55;;;;;;;;;;;14.10;39.00;;;;;;5159087;27;19930;-68
2022/11/20 01:39:22;;;;;;;;;;;14.10;39.00;;;;;;5159211;27;19923;-71
2022/11/20 01:50:05;;;;;;;;;;;14.00;39.00;;;;;;5089879;28;19912;-71
2022/11/20 01:52:34;;;;;;;;;;;14.00;39.00;;;;;;5088559;28;19924;-71
2022/11/20 01:55:03;;;;;;;;;;;14.00;39.10;;;;;;5088455;28;20011;-71
2022/11/20 01:57:30;;;;;;;;;;;14.00;39.10;;;;;;5088870;28;20317;-71
2022/11/20 02:00:00;;;;;;;;;;;14.00;39.00;;;;;;5088747;28;19920;-71
2022/11/20 02:02:26;;;;;;;;;;;14.00;39.10;;;;;;5088410;28;19920;-71
2022/11/20 02:04:53;;;;;;;;;;;14.00;39.10;;;;;;5088606;28;19920;-70
2022/11/20 02:07:19;;;;;;;;;;;14.00;39.10;;;;;;5088306;28;19924;-71
2022/11/20 02:09:45;;;;;;;;;;;14.00;39.10;;;;;;5088163;28;20011;-68
2022/11/20 02:13:42;;;;;;;;;;;14.00;39.10;;;;;;5089747;28;20474;-71
2022/11/20 02:14:56;;;;;;;;;;;14.00;39.00;;;;;;5088349;28;19920;-69
2022/11/20 02:17:22;;;;;;;;;;;14.00;39.10;;;;;;5088119;28;19921;-69
2022/11/20 02:19:48;;;;;;;;;;;14.00;39.10;;;;;;5088035;28;19928;-70
2022/11/20 02:22:17;;;;;;;;;;;14.00;39.10;;;;;;5105309;28;19924;-68
2022/11/20 02:24:44;;;;;;;;;;;14.00;39.20;;;;;;5088036;28;19928;-68
2022/11/20 02:27:10;;;;;;;;;;;14.00;39.10;;;;;;5087925;28;19927;-71
2022/11/20 02:29:43;;;;;;;;;;;14.00;39.10;;;;;;5087851;28;19930;-69
2022/11/20 02:32:28;;;;;;;;;;;14.00;39.20;;;;;;5088160;28;19925;-71
2022/11/20 02:34:54;;;;;;;;;;;14.00;39.20;;;;;;5087579;28;19924;-70
2022/11/20 02:37:20;;;;;;;;;;;13.90;39.10;;;;;;5087805;28;19920;-70
2022/11/20 02:39:46;;;;;;;;;;;14.00;39.20;;;;;;5087971;28;19920;-69
2022/11/20 02:42:12;;;;;;;;;;;14.00;39.20;;;;;;5089127;28;19920;-71
2022/11/20 02:44:37;;;;;;;;;;;14.00;39.20;;;;;;5088902;28;19927;-71
2022/11/20 02:47:03;;;;;;;;;;;14.00;40.00;;;;;;5087873;28;20329;-71
2022/11/20 02:49:28;;;;;;;;;;;14.10;39.20;;;;;;5082831;28;19924;-68
2022/11/20 02:51:54;;;;;;;;;;;14.00;39.20;;;;;;5087435;28;19921;-70
2022/11/20 02:54:19;;;;;;;;;;;14.00;39.20;;;;;;5087475;28;19927;-70
2022/11/20 02:56:45;;;;;;;;;;;13.90;39.20;;;;;;5087669;28;19920;-71
2022/11/20 02:59:10;;;;;;;;;;;13.90;39.30;;;;;;5086563;28;20280;-71
2022/11/20 03:01:36;;;;;;;;;;;13.90;39.20;;;;;;5073331;28;19921;-69
2022/11/20 03:04:01;;;;;;;;;;;14.00;39.30;;;;;;5074004;28;19927;-71
2022/11/20 03:06:27;;;;;;;;;;;13.90;39.30;;;;;;5073565;28;20338;-71
2022/11/20 03:08:53;;;;;;;;;;;13.90;39.20;;;;;;5073670;28;20031;-68
2022/11/20 03:11:18;;;;;;;;;;;13.90;39.30;;;;;;5073571;28;19920;-71
2022/11/20 03:13:44;;;;;;;;;;;14.00;39.30;;;;;;5073901;28;19924;-70
2022/11/20 03:16:11;;;;;;;;;;;14.00;39.30;;;;;;5073786;28;20380;-69
2022/11/20 03:18:37;;;;;;;;;;;13.90;39.30;;;;;;5073840;28;20019;-69
2022/11/20 03:21:03;;;;;;;;;;;13.90;39.20;;;;;;5073404;28;20352;-69
2022/11/20 03:23:29;;;;;;;;;;;14.00;39.30;;;;;;5073399;28;19970;-70
2022/11/20 03:25:55;;;;;;;;;;;14.00;39.20;;;;;;5073435;28;20406;-71
2022/11/20 03:28:20;;;;;;;;;;;14.00;39.20;;;;;;5073149;28;19924;-70
2022/11/20 03:30:46;;;;;;;;;;;14.00;39.20;;;;;;5073579;28;19921;-71
2022/11/20 03:33:11;;;;;;;;;;;14.00;39.20;;;;;;5074407;28;20269;-71
2022/11/20 03:35:37;;;;;;;;;;;14.00;39.30;;;;;;5073107;28;19920;-69
2022/11/20 03:38:02;;;;;;;;;;;13.90;39.30;;;;;;5073371;28;19924;-70
2022/11/20 03:40:28;;;;;;;;;;;14.00;39.30;;;;;;5074283;28;20005;-71
2022/11/20 03:42:53;;;;;;;;;;;13.90;39.30;;;;;;5089789;28;20419;-68
2022/11/20 03:45:19;;;;;;;;;;;13.90;39.30;;;;;;5074174;28;19920;-71
2022/11/20 03:47:45;;;;;;;;;;;15.00;39.90;;;;;;5073044;28;19932;-70
2022/11/20 03:50:12;;;;;;;;;;;14.00;39.40;;;;;;5091433;28;20376;-71
2022/11/20 03:52:38;;;;;;;;;;;13.90;39.30;;;;;;5094490;28;19989;-72
2022/11/20 03:55:04;;;;;;;;;;;14.00;39.40;;;;;;5094466;28;19920;-71
2022/11/20 03:57:30;;;;;;;;;;;13.90;39.40;;;;;;5076270;28;20364;-71
2022/11/20 03:59:55;;;;;;;;;;;13.90;39.40;;;;;;5076325;28;19927;-71
2022/11/20 04:02:21;;;;;;;;;;;13.90;39.40;;;;;;5094137;28;20391;-70
2022/11/20 04:04:46;;;;;;;;;;;13.90;39.30;;;;;;5075876;28;20010;-71
2022/11/20 04:07:12;;;;;;;;;;;13.90;39.30;;;;;;5094043;28;19955;-70
2022/11/20 04:09:37;;;;;;;;;;;14.00;39.40;;;;;;5075781;28;19946;-71
2022/11/20 04:12:03;;;;;;;;;;;14.00;39.40;;;;;;5092972;28;19943;-68
2022/11/20 04:14:28;;;;;;;;;;;14.00;39.40;;;;;;5075960;28;19927;-72
2022/11/20 04:16:54;;;;;;;;;;;13.90;39.30;;;;;;5075691;28;19969;-71
2022/11/20 04:19:19;;;;;;;;;;;13.90;39.40;;;;;;5075875;28;19927;-69
2022/11/20 04:21:45;;;;;;;;;;;13.90;39.40;;;;;;5093685;28;19926;-71
2022/11/20 04:24:11;;;;;;;;;;;13.90;39.40;;;;;;5075516;28;19924;-69
2022/11/20 04:26:37;;;;;;;;;;;13.90;39.40;;;;;;5076026;28;19919;-71
2022/11/20 04:29:03;;;;;;;;;;;13.90;39.40;;;;;;5093470;28;19978;-71
2022/11/20 04:31:31;;;;;;;;;;;13.90;39.40;;;;;;5075722;28;19920;-68
2022/11/20 04:34:01;;;;;;;;;;;13.90;39.40;;;;;;5075303;28;19921;-71
2022/11/20 04:36:27;;;;;;;;;;;13.90;39.40;;;;;;5075213;28;19920;-71
2022/11/20 04:38:53;;;;;;;;;;;13.90;39.40;;;;;;5075242;28;19926;-71
2022/11/20 04:41:20;;;;;;;;;;;13.90;39.50;;;;;;5075410;28;19920;-69
2022/11/20 04:43:46;;;;;;;;;;;13.90;39.50;;;;;;5093381;28;19920;-71
2022/11/20 04:46:12;;;;;;;;;;;13.90;39.50;;;;;;5093302;28;19994;-71
2022/11/20 04:48:37;;;;;;;;;;;13.90;39.50;;;;;;5074867;28;19936;-69
2022/11/20 04:51:03;;;;;;;;;;;13.90;39.60;;;;;;5074967;28;20292;-70
2022/11/20 04:53:29;;;;;;;;;;;13.80;39.50;;;;;;5075001;28;19946;-70
2022/11/20 04:56:03;;;;;;;;;;;13.70;39.50;;;;;;5093126;28;20014;-68
2022/11/20 04:58:29;;;;;;;;;;;13.80;39.60;;;;;;5093048;28;19920;-68
2022/11/20 05:01:00;;;;;;;;;;;13.80;39.60;;;;;;5074798;28;19924;-71
2022/11/20 05:03:26;;;;;;;;;;;13.80;39.60;;;;;;5074850;28;19969;-71
2022/11/20 05:05:51;;;;;;;;;;;13.80;39.50;;;;;;5092880;28;20004;-71
2022/11/20 05:08:17;;;;;;;;;;;13.80;39.50;;;;;;5075002;28;20097;-69
2022/11/20 05:10:42;;;;;;;;;;;13.80;39.60;;;;;;5074841;28;20439;-70
2022/11/20 05:13:08;;;;;;;;;;;13.80;39.50;;;;;;5074854;28;20002;-69
2022/11/20 05:15:33;;;;;;;;;;;13.80;39.50;;;;;;5074629;28;20003;-70
2022/11/20 05:17:58;;;;;;;;;;;13.80;39.60;;;;;;5074935;28;19920;-71
2022/11/20 05:20:24;;;;;;;;;;;13.80;39.60;;;;;;5074481;28;20394;-69
2022/11/20 05:22:49;;;;;;;;;;;13.80;39.70;;;;;;5074304;28;19920;-71
2022/11/20 05:25:15;;;;;;;;;;;13.80;39.70;;;;;;5093020;28;19920;-69
2022/11/20 05:27:41;;;;;;;;;;;13.70;39.70;;;;;;5074487;28;19920;-69
2022/11/20 05:30:06;;;;;;;;;;;13.80;39.70;;;;;;5074381;28;19920;-72
2022/11/20 05:32:32;;;;;;;;;;;13.80;39.80;;;;;;5074422;28;19927;-72
2022/11/20 05:34:57;;;;;;;;;;;13.80;39.70;;;;;;5074431;28;19928;-70
2022/11/20 05:37:23;;;;;;;;;;;13.80;39.60;;;;;;5074616;28;19927;-72
2022/11/20 05:39:48;;;;;;;;;;;13.80;39.70;;;;;;5074090;28;20382;-69
2022/11/20 05:42:45;;;;;;;;;;;13.80;39.80;;;;;;5074090;28;20371;-71
2022/11/20 05:45:00;;;;;;;;;;;13.80;39.70;;;;;;5074233;28;19924;-71
2022/11/20 05:47:27;;;;;;;;;;;13.80;39.60;;;;;;5074614;28;19920;-71
2022/11/20 05:49:52;;;;;;;;;;;13.80;39.60;;;;;;5091955;28;19925;-70
2022/11/20 05:52:18;;;;;;;;;;;13.80;39.60;;;;;;5074200;28;19926;-71
2022/11/20 05:54:43;;;;;;;;;;;13.70;39.60;;;;;;5092740;28;19965;-67
2022/11/20 05:57:09;;;;;;;;;;;13.80;39.60;;;;;;5074501;28;20032;-70
2022/11/20 05:59:34;;;;;;;;;;;13.90;39.70;;;;;;5074689;28;20370;-71
2022/11/20 06:02:00;;;;;;;;;;;13.80;39.60;;;;;;5074495;28;20019;-71
2022/11/20 06:04:25;;;;;;;;;;;13.80;39.60;;;;;;5092725;28;20326;-69
2022/11/20 06:06:51;;;;;;;;;;;13.80;39.60;;;;;;5074403;28;20341;-69
2022/11/20 06:09:16;;;;;;;;;;;13.80;40.40;;;;;;5074127;28;19924;-69
2022/11/20 06:11:42;;;;;;;;;;;13.80;39.70;;;;;;5074367;28;19920;-70
2022/11/20 06:14:07;;;;;;;;;;;13.80;39.60;;;;;;5074088;28;19920;-71
2022/11/20 06:16:33;;;;;;;;;;;13.80;39.70;;;;;;5074210;28;19934;-69
2022/11/20 06:18:58;;;;;;;;;;;13.80;39.60;;;;;;5092172;28;19920;-69
2022/11/20 06:21:24;;;;;;;;;;;13.80;39.60;;;;;;5073976;28;19924;-70
2022/11/20 06:23:50;;;;;;;;;;;13.80;39.60;;;;;;5073970;28;19920;-71
2022/11/20 06:26:17;;;;;;;;;;;13.80;39.70;;;;;;5074271;28;19970;-71
2022/11/20 06:28:43;;;;;;;;;;;13.80;39.60;;;;;;5073864;28;19995;-69
2022/11/20 06:31:10;;;;;;;;;;;13.80;39.60;;;;;;5074208;28;19928;-71
2022/11/20 06:33:36;;;;;;;;;;;13.80;39.60;;;;;;5074097;28;19926;-71
2022/11/20 06:36:03;;;;;;;;;;;13.80;39.60;;;;;;5076400;28;19920;-69
2022/11/20 06:38:28;;;;;;;;;;;13.80;39.60;;;;;;5095683;28;20045;-71
2022/11/20 06:40:54;;;;;;;;;;;13.80;39.60;;;;;;5095762;28;20018;-70
2022/11/20 06:43:20;;;;;;;;;;;13.80;39.60;;;;;;5077763;28;20058;-71
2022/11/20 06:45:45;;;;;;;;;;;13.80;39.60;;;;;;5077526;28;19920;-69
2022/11/20 06:48:11;;;;;;;;;;;13.80;39.70;;;;;;5077337;28;19931;-71
2022/11/20 06:50:37;;;;;;;;;;;13.80;39.70;;;;;;5077256;28;19962;-71
2022/11/20 06:53:03;;;;;;;;;;;13.70;39.70;;;;;;5077497;28;19920;-70
2022/11/20 06:55:29;;;;;;;;;;;13.70;39.70;;;;;;5077681;28;19920;-68
2022/11/20 06:57:54;;;;;;;;;;;13.80;39.70;;;;;;5095400;28;20088;-70
2022/11/20 07:00:20;;;;;;;;;;;13.80;39.70;;;;;;5095527;28;19921;-70
2022/11/20 07:02:46;;;;;;;;;;;13.80;39.70;;;;;;5077175;28;19966;-70
2022/11/20 07:05:11;;;;;;;;;;;13.80;39.70;;;;;;5077418;28;19959;-69
2022/11/20 07:07:37;;;;;;;;;;;13.70;39.70;;;;;;5077022;28;20354;-71
2022/11/20 07:10:02;;;;;;;;;;;13.80;39.70;;;;;;5076902;28;19928;-70
2022/11/20 07:12:28;;;;;;;;;;;13.80;39.70;;;;;;5077284;28;19920;-69
2022/11/20 07:14:53;;;;;;;;;;;13.80;39.70;;;;;;5077243;28;19997;-70
2022/11/20 07:17:19;;;;;;;;;;;13.80;39.60;;;;;;5095143;28;19920;-71
2022/11/20 07:19:44;;;;;;;;;;;13.80;39.60;;;;;;5077139;28;19924;-69
2022/11/20 07:22:10;;;;;;;;;;;13.80;39.60;;;;;;5077130;28;19920;-69
2022/11/20 07:24:35;;;;;;;;;;;13.80;39.60;;;;;;5076966;28;19920;-71
2022/11/20 07:27:01;;;;;;;;;;;13.80;39.60;;;;;;5095098;28;20387;-70
2022/11/20 07:29:26;;;;;;;;;;;13.80;39.60;;;;;;5076702;28;19970;-71
2022/11/20 07:31:52;;;;;;;;;;;13.80;39.60;;;;;;5076919;28;20348;-69
2022/11/20 07:34:17;;;;;;;;;;;13.80;40.00;;;;;;5076809;28;20431;-69
2022/11/20 07:36:43;;;;;;;;;;;13.80;39.60;;;;;;5076844;28;20012;-69
2022/11/20 07:39:08;;;;;;;;;;;13.80;39.60;;;;;;5076366;28;19920;-68
2022/11/20 07:41:34;;;;;;;;;;;13.80;39.60;;;;;;5076645;28;19928;-69
2022/11/20 07:43:59;;;;;;;;;;;13.70;39.60;;;;;;5094524;28;19920;-69
2022/11/20 07:46:25;;;;;;;;;;;13.80;39.60;;;;;;5076503;28;19921;-69
2022/11/20 07:48:50;;;;;;;;;;;13.80;39.60;;;;;;5076008;28;20038;-70
2022/11/20 07:51:16;;;;;;;;;;;13.80;39.60;;;;;;5094312;28;19920;-71
2022/11/20 07:53:41;;;;;;;;;;;13.80;39.70;;;;;;5076137;28;19920;-70
2022/11/20 07:56:07;;;;;;;;;;;13.70;39.60;;;;;;5076097;28;20009;-68
2022/11/20 07:58:34;;;;;;;;;;;13.70;39.60;;;;;;5094386;28;20006;-69
2022/11/20 08:01:03;;;;;;;;;;;13.80;39.70;;;;;;5076013;28;19920;-70
2022/11/20 08:03:29;;;;;;;;;;;13.70;39.60;;;;;;5076016;28;19968;-70
2022/11/20 08:05:58;;;;;;;;;;;13.70;39.60;;;;;;5075846;28;19971;-70
2022/11/20 08:08:23;;;;;;;;;;;13.70;39.60;;;;;;5075865;28;19924;-69
2022/11/20 08:10:49;;;;;;;;;;;13.70;39.70;;;;;;5076059;28;20014;-70
2022/11/20 08:16:00;;;;;;;;;;;13.70;39.70;;;;;;5075828;28;19920;-69
2022/11/20 08:18:25;;;;;;;;;;;13.70;39.70;;;;;;5075925;28;20333;-71
2022/11/20 08:20:50;;;;;;;;;;;13.80;39.70;;;;;;5059297;28;19924;-69
2022/11/20 08:23:16;;;;;;;;;;;13.80;39.60;;;;;;5075543;28;19924;-69
2022/11/20 08:25:42;;;;;;;;;;;13.70;39.60;;;;;;5075892;28;19920;-68
2022/11/20 08:28:08;;;;;;;;;;;13.70;39.60;;;;;;5075358;28;20383;-71
2022/11/20 08:30:34;;;;;;;;;;;13.70;39.60;;;;;;5075550;28;19920;-68
2022/11/20 08:33:00;;;;;;;;;;;13.70;39.60;;;;;;5075725;28;19943;-68
2022/11/20 08:35:26;;;;;;;;;;;13.70;39.60;;;;;;5075620;28;20018;-72
2022/11/20 08:37:51;;;;;;;;;;;13.70;39.60;;;;;;5075592;28;20140;-71
2022/11/20 08:40:17;;;;;;;;;;;13.70;39.70;;;;;;5093573;28;19987;-70
2022/11/20 08:42:47;;;;;;;;;;;13.70;39.70;;;;;;5075241;28;19927;-68
2022/11/20 08:45:12;;;;;;;;;;;13.70;39.70;;;;;;5075182;28;19920;-71
2022/11/20 08:47:38;;;;;;;;;;;13.70;39.70;;;;;;5075399;28;19965;-71
2022/11/20 08:50:04;;;;;;;;;;;13.70;39.70;;;;;;5074795;28;19930;-71
2022/11/20 08:52:29;;;;;;;;;;;13.70;39.70;;;;;;5075260;28;19920;-68
2022/11/20 08:54:54;;;;;;;;;;;13.70;39.70;;;;;;5074994;28;19932;-71
2022/11/20 08:57:20;;;;;;;;;;;13.70;39.70;;;;;;5092821;28;19920;-71
2022/11/20 08:59:46;;;;;;;;;;;13.70;39.70;;;;;;5075132;28;19971;-71
2022/11/20 09:02:11;;;;;;;;;;;13.70;39.60;;;;;;5075179;28;20372;-71
2022/11/20 09:04:37;;;;;;;;;;;13.70;39.60;;;;;;5074850;28;19920;-68
2022/11/20 09:07:03;;;;;;;;;;;13.70;39.60;;;;;;5093075;28;19973;-70
2022/11/20 09:09:28;;;;;;;;;;;13.70;39.60;;;;;;5074669;28;19978;-68
2022/11/20 09:11:54;;;;;;;;;;;13.70;39.70;;;;;;5092916;28;20317;-70
2022/11/20 09:14:19;;;;;;;;;;;13.70;39.60;;;;;;5074728;28;19994;-70
2022/11/20 09:16:46;;;;;;;;;;;13.70;39.60;;;;;;5074660;28;19920;-69
2022/11/20 09:19:11;;;;;;;;;;;13.70;39.60;;;;;;5074685;28;19959;-71
2022/11/20 09:21:37;;;;;;;;;;;13.70;39.50;;;;;;5093147;28;19974;-71
2022/11/20 09:24:02;;;;;;;;;;;13.70;39.50;;;;;;5074776;28;19920;-70
2022/11/20 09:26:28;;;;;;;;;;;13.70;39.50;;;;;;5074541;28;19927;-69
2022/11/20 09:28:55;;;;;;;;;;;13.70;39.60;;;;;;5074540;28;20010;-70
2022/11/20 09:31:22;;;;;;;;;;;13.70;39.50;;;;;;5092619;28;20414;-71
2022/11/20 09:33:48;;;;;;;;;;;13.70;39.60;;;;;;5074400;28;20456;-70
2022/11/20 09:36:14;;;;;;;;;;;13.70;39.60;;;;;;5074508;28;19920;-71
2022/11/20 09:38:39;;;;;;;;;;;13.70;39.60;;;;;;5092518;28;19952;-71
2022/11/20 09:41:05;;;;;;;;;;;13.70;39.60;;;;;;5074279;28;19920;-69
2022/11/20 09:43:51;;;;;;;;;;;13.70;39.60;;;;;;5074697;28;19966;-72
2022/11/20 09:49:17;;;;;;;;;;;13.70;39.60;;;;;;5110040;27;20396;-69
2022/11/20 09:51:46;;;;;;;;;;;13.60;39.50;;;;;;5108681;28;20504;-71
2022/11/20 09:54:16;;;;;;;;;;;13.70;39.60;;;;;;5109149;28;19920;-69
2022/11/20 09:56:44;;;;;;;;;;;13.70;39.60;;;;;;5108855;28;19927;-72
2022/11/20 09:59:17;;;;;;;;;;;13.70;39.60;;;;;;5109092;28;19963;-70
2022/11/20 10:01:44;;;;;;;;;;;13.70;39.60;;;;;;5108801;28;19970;-71
2022/11/20 10:07:10;;;;;;;;;;;13.70;39.60;;;;;;5110297;27;19913;-71
2022/11/20 10:09:37;;;;;;;;;;;13.70;39.60;;;;;;5109007;28;20286;-71
2022/11/20 10:12:12;;;;;;;;;;;13.70;39.70;;;;;;5109230;28;20379;-70
2022/11/20 10:20:17;;;;;;;;;;;13.70;39.70;;;;;;5110324;27;19912;-68
2022/11/20 10:22:50;;;;;;;;;;;13.70;39.70;;;;;;5109283;28;20321;-69
2022/11/20 10:25:18;;;;;;;;;;;13.60;39.60;;;;;;5091799;28;19924;-69
2022/11/20 10:30:25;;;;;;;;;;;13.70;39.70;;;;;;5127118;27;1874977;-70
2022/11/20 10:33:10;;;;;;;;;;;13.70;39.60;;;;;;5174484;27;19961;-69
2022/11/20 10:35:41;;;;;;;;;;;13.70;39.60;;;;;;5174004;27;19919;-69
2022/11/20 10:38:12;;;;;;;;;;;13.70;39.60;;;;;;5174600;27;19926;-69
2022/11/20 10:40:39;;;;;;;;;;;13.70;39.60;;;;;;5193010;27;19979;-69
2022/11/20 10:43:12;;;;;;;;;;;13.70;39.70;;;;;;5193085;27;19922;-70
2022/11/20 10:45:44;;;;;;;;;;;13.70;39.70;;;;;;5174418;27;20005;-69
2022/11/20 10:48:14;;;;;;;;;;;13.70;39.60;;;;;;5192842;27;20270;-69
2022/11/20 10:50:45;;;;;;;;;;;13.70;39.60;;;;;;5174018;27;20381;-69
2022/11/20 10:53:20;;;;;;;;;;;13.70;39.60;;;;;;5173940;27;20028;-69
2022/11/20 10:58:46;;;;;;;;;;;13.70;39.60;;;;;;5193321;27;20296;-69
2022/11/20 11:01:14;;;;;;;;;;;13.70;39.50;;;;;;5174115;27;19925;-69
2022/11/20 11:03:43;;;;;;;;;;;13.70;39.60;;;;;;5174741;27;19925;-70
2022/11/20 11:06:21;;;;;;;;;;;13.70;39.60;;;;;;5174248;27;19922;-69
2022/11/20 11:08:49;;;;;;;;;;;13.70;39.50;;;;;;5174595;27;19918;-69
2022/11/20 11:11:30;;;;;;;;;;;13.70;39.50;;;;;;5174365;27;19918;-69
2022/11/20 11:14:16;;;;;;;;;;;13.60;39.60;;;;;;5174148;27;19919;-69
2022/11/20 11:16:50;;;;;;;;;;;13.60;39.60;;;;;;5192550;27;19923;-69
2022/11/20 11:19:16;;;;;;;;;;;13.60;39.70;;;;;;5192943;27;19919;-70
2022/11/20 11:21:56;;;;;;;;;;;13.60;39.70;;;;;;5192666;27;19971;-69
2022/11/20 11:24:23;;;;;;;;;;;13.50;39.70;;;;;;5174125;27;20412;-69
2022/11/20 11:26:55;;;;;;;;;;;13.50;39.80;;;;;;5192807;27;19923;-69
2022/11/20 11:29:20;;;;;;;;;;;13.50;39.90;;;;;;5173777;27;19919;-69
2022/11/20 11:31:46;;;;;;;;;;;13.40;39.90;;;;;;5173806;27;19919;-70
2022/11/20 11:34:12;;;;;;;;;;;13.40;40.00;;;;;;5173660;27;19971;-69
2022/11/20 11:36:38;;;;;;;;;;;13.30;40.00;;;;;;5173640;27;19922;-70
2022/11/20 11:39:05;;;;;;;;;;;13.30;40.10;;;;;;5173994;27;20521;-69
2022/11/20 11:41:35;;;;;;;;;;;13.30;40.20;;;;;;5173905;27;19925;-70
2022/11/20 11:46:58;;;;;;;;;;;13.20;40.40;;;;;;5173669;27;20445;-69
2022/11/20 11:49:23;;;;;;;;;;;13.20;40.40;;;;;;5173496;27;20021;-69
2022/11/20 11:51:58;;;;;;;;;;;13.10;40.40;;;;;;5173784;27;19918;-69
2022/11/20 11:54:26;;;;;;;;;;;13.10;40.50;;;;;;5173676;27;19919;-69
2022/11/20 11:56:52;;;;;;;;;;;13.00;40.50;;;;;;5173272;27;19945;-68
2022/11/20 11:59:28;;;;;;;;;;;13.00;40.70;;;;;;5173321;27;19926;-69
2022/11/20 12:01:59;;;;;;;;;;;12.90;40.70;;;;;;5192108;27;19929;-69
2022/11/20 12:04:44;;;;;;;;;;;12.90;40.80;;;;;;5173260;27;19923;-70
2022/11/20 12:07:15;;;;;;;;;;;13.40;40.60;;;;;;5172982;27;20028;-69
2022/11/20 12:09:43;;;;;;;;;;;13.80;39.80;;;;;;5159596;27;20446;-70
2022/11/20 12:12:12;;;;;;;;;;;14.20;39.10;;;;;;5159050;27;20404;-69
2022/11/20 12:14:40;;;;;;;;;;;14.70;38.60;;;;;;5159404;27;19953;-70
2022/11/20 12:17:08;;;;;;;;;;;15.30;37.70;;;;;;5159019;27;20009;-69
2022/11/20 12:19:34;;;;;;;;;;;16.00;36.70;;;;;;5159183;27;19928;-69
2022/11/20 12:22:10;;;;;;;;;;;16.80;36.40;;;;;;5158946;27;20281;-69
2022/11/20 12:33:02;;;;;;;;;;;19.90;31.40;;;;;;5127674;27;1862543;-69
2022/11/20 12:35:35;;;;;;;;;;;20.30;30.90;;;;;;5174093;27;19974;-70
2022/11/20 12:52:16;;;;;;;;;;;19.90;31.00;;;;;;5089893;28;19912;-68
2022/11/20 12:55:01;;;;;;;;;;;19.80;31.20;;;;;;5088530;28;19921;-70
2022/11/20 13:00:16;;;;;;;;;;;19.50;31.70;;;;;;5089913;28;19912;-70
2022/11/20 13:02:54;;;;;;;;;;;19.30;31.90;;;;;;5088877;28;19920;-70
2022/11/20 13:08:00;;;;;;;;;;;18.90;32.40;;;;;;5089980;28;20275;-69
2022/11/20 13:10:46;;;;;;;;;;;18.80;32.50;;;;;;5088496;28;19936;-69
2022/11/20 13:13:15;;;;;;;;;;;18.60;32.70;;;;;;5088548;28;19925;-70
2022/11/20 13:18:24;;;;;;;;;;;18.30;33.20;;;;;;5110554;27;20168;-70
2022/11/20 13:20:50;;;;;;;;;;;18.20;33.50;;;;;;5108956;28;20427;-69
2022/11/20 13:23:31;;;;;;;;;;;17.90;33.60;;;;;;5109086;28;19924;-69
2022/11/20 13:26:05;;;;;;;;;;;17.80;33.90;;;;;;5109127;28;19920;-70
2022/11/20 13:28:30;;;;;;;;;;;17.60;34.10;;;;;;5108814;28;19966;-69
2022/11/20 13:30:57;;;;;;;;;;;17.50;34.20;;;;;;5109002;28;19924;-70
2022/11/20 13:33:25;;;;;;;;;;;17.30;34.40;;;;;;5108756;28;19920;-69
2022/11/20 13:38:42;;;;;;;;;;;17.10;34.70;;;;;;5089893;28;19935;-69
2022/11/20 13:41:40;;;;;;;;;;;17.00;34.90;;;;;;5089962;28;20287;-69
2022/11/20 13:43:54;;;;;;;;;;;16.90;35.10;;;;;;5088037;28;20023;-69
2022/11/20 13:46:24;;;;;;;;;;;16.80;35.30;;;;;;5088574;28;19920;-69
2022/11/20 13:48:50;;;;;;;;;;;16.60;35.40;;;;;;5088414;28;19920;-69
2022/11/20 13:51:36;;;;;;;;;;;16.50;35.50;;;;;;5088705;28;19942;-69
2022/11/20 13:54:13;;;;;;;;;;;16.40;35.60;;;;;;5088161;28;19962;-69
2022/11/20 13:56:59;;;;;;;;;;;16.30;35.80;;;;;;5088410;28;19924;-69
2022/11/20 13:59:45;;;;;;;;;;;16.20;35.90;;;;;;5088115;28;19970;-69
2022/11/20 14:02:12;;;;;;;;;;;16.20;36.80;;;;;;5088237;28;20308;-70
2022/11/20 14:04:42;;;;;;;;;;;16.10;36.20;;;;;;5088194;28;19925;-70
2022/11/20 14:07:08;;;;;;;;;;;16.00;36.20;;;;;;5088339;28;19969;-69
2022/11/20 14:09:34;;;;;;;;;;;15.90;36.40;;;;;;5088099;28;20003;-70
2022/11/20 14:12:02;;;;;;;;;;;15.80;36.40;;;;;;5088075;28;19924;-69
2022/11/20 14:14:28;;;;;;;;;;;15.80;36.50;;;;;;5089424;28;19967;-69
2022/11/20 14:17:05;;;;;;;;;;;15.70;36.60;;;;;;5087358;28;19924;-69
2022/11/20 14:19:31;;;;;;;;;;;15.60;36.70;;;;;;5088057;28;19927;-69
2022/11/20 14:22:18;;;;;;;;;;;15.60;36.80;;;;;;5087843;28;19920;-69
2022/11/20 14:24:44;;;;;;;;;;;15.50;36.90;;;;;;5087868;28;19931;-69
2022/11/20 14:27:12;;;;;;;;;;;15.40;37.00;;;;;;5087783;28;20388;-70
2022/11/20 14:29:38;;;;;;;;;;;15.40;37.10;;;;;;5087966;28;19921;-69
2022/11/20 14:32:04;;;;;;;;;;;15.30;37.30;;;;;;5087863;28;19921;-69
2022/11/20 14:34:31;;;;;;;;;;;15.20;37.40;;;;;;5087557;28;19920;-69
2022/11/20 14:36:59;;;;;;;;;;;15.10;37.40;;;;;;5087541;28;19939;-69
2022/11/20 14:39:27;;;;;;;;;;;15.10;37.60;;;;;;5089106;28;19924;-69
2022/11/20 14:41:53;;;;;;;;;;;15.00;37.70;;;;;;5088829;28;19960;-69
2022/11/20 14:44:23;;;;;;;;;;;15.00;37.90;;;;;;5088682;28;20414;-69
2022/11/20 14:46:50;;;;;;;;;;;14.90;38.00;;;;;;5087619;28;19928;-69
2022/11/20 14:49:15;;;;;;;;;;;14.80;38.10;;;;;;5077707;28;19925;-69
2022/11/20 14:51:41;;;;;;;;;;;14.80;38.20;;;;;;5075000;28;19966;-69
2022/11/20 14:56:53;;;;;;;;;;;14.60;38.30;;;;;;5089951;28;19913;-68
2022/11/20 14:59:22;;;;;;;;;;;14.50;38.40;;;;;;5088460;28;19920;-69
2022/11/20 15:01:55;;;;;;;;;;;14.50;38.60;;;;;;5088596;28;19921;-70
2022/11/20 15:04:21;;;;;;;;;;;14.50;38.70;;;;;;5088925;28;19920;-69
2022/11/20 15:06:55;;;;;;;;;;;14.40;38.80;;;;;;5088496;28;19925;-69
2022/11/20 15:09:21;;;;;;;;;;;14.40;38.80;;;;;;5088318;28;19920;-69
2022/11/20 15:12:02;;;;;;;;;;;14.40;38.90;;;;;;5088678;28;19927;-70
2022/11/20 15:14:29;;;;;;;;;;;14.40;38.90;;;;;;5088500;28;20330;-69
2022/11/20 15:16:55;;;;;;;;;;;12.80;38.20;;;;;;5088196;28;20391;-69
2022/11/20 15:19:22;;;;;;;;;;;14.30;39.00;;;;;;5088512;28;19920;-69
2022/11/20 15:21:47;;;;;;;;;;;14.30;39.10;;;;;;5089714;28;19924;-70
2022/11/20 15:24:13;;;;;;;;;;;14.30;39.10;;;;;;5088462;28;19920;-69
2022/11/20 15:26:41;;;;;;;;;;;14.20;39.10;;;;;;5087997;28;20054;-69